sensor_id;sensor_type;location;lat;lon;timestamp;temperature;humidity
42841;DHT22;28491;46.898;7.660;2023-05-08T00:01:06;12.70;99.90
42841;DHT22;28491;46.898;7.660;2023-05-08T00:03:32;12.70;99.90
42841;DHT22;28491;46.898;7.660;2023-05-08T00:05:57;12.60;99.90
42841;DHT22;28491;46.898;7.660;2023-05-08T00:08:23;12.60;99.90
42841;DHT22;28491;46.898;7.660;2023-05-08T00:10:48;12.60;99.90
42841;DHT22;28491;46.898;7.660;2023-05-08T00:13:14;12.70;99.90
42841;DHT22;28491;46.898;7.660;2023-05-08T00:15:39;12.70;99.90
42841;DHT22;28491;46.898;7.660;2023-05-08T00:18:05;12.70;99.90
42841;DHT22;28491;46.898;7.660;2023-05-08T00:20:30;12.60;99.90
42841;DHT22;28491;46.898;7.660;2023-05-08T00:22:57;12.70;99.90
42841;DHT22;28491;46.898;7.660;2023-05-08T00:25:23;12.80;99.90
42841;DHT22;28491;46.898;7.660;2023-05-08T00:27:48;12.80;99.90
42841;DHT22;28491;46.898;7.660;2023-05-08T00:30:15;12.80;99.90
42841;DHT22;28491;46.898;7.660;2023-05-08T00:32:40;12.80;99.90
42841;DHT22;28491;46.898;7.660;2023-05-08T00:35:06;12.80;99.90
42841;DHT22;28491;46.898;7.660;2023-05-08T00:37:32;12.80;99.90
42841;DHT22;28491;46.898;7.660;2023-05-08T00:39:57;12.70;99.90
42841;DHT22;28491;46.898;7.660;2023-05-08T00:42:23;12.80;99.90
42841;DHT22;28491;46.898;7.660;2023-05-08T00:44:49;12.80;99.90
42841;DHT22;28491;46.898;7.660;2023-05-08T00:47:14;12.80;99.90
42841;DHT22;28491;46.898;7.660;2023-05-08T00:49:40;12.80;99.90
42841;DHT22;28491;46.898;7.660;2023-05-08T00:52:06;12.80;99.90
42841;DHT22;28491;46.898;7.660;2023-05-08T00:54:36;12.70;99.90
42841;DHT22;28491;46.898;7.660;2023-05-08T00:57:05;12.70;99.90
42841;DHT22;28491;46.898;7.660;2023-05-08T00:59:31;12.70;99.90
42841;DHT22;28491;46.898;7.660;2023-05-08T01:01:59;12.80;99.90
42841;DHT22;28491;46.898;7.660;2023-05-08T01:04:25;12.70;99.90
42841;DHT22;28491;46.898;7.660;2023-05-08T01:06:52;12.70;99.90
42841;DHT22;28491;46.898;7.660;2023-05-08T01:09:17;12.70;99.90
42841;DHT22;28491;46.898;7.660;2023-05-08T01:11:55;12.70;99.90
42841;DHT22;28491;46.898;7.660;2023-05-08T01:14:51;12.70;99.90
42841;DHT22;28491;46.898;7.660;2023-05-08T01:17:30;12.60;99.90
42841;DHT22;28491;46.898;7.660;2023-05-08T01:20:18;12.60;99.90
42841;DHT22;28491;46.898;7.660;2023-05-08T01:34:23;12.50;99.90
42841;DHT22;28491;46.898;7.660;2023-05-08T01:36:57;12.40;99.90
42841;DHT22;28491;46.898;7.660;2023-05-08T01:44:50;12.40;99.90
42841;DHT22;28491;46.898;7.660;2023-05-08T01:47:18;12.40;99.90
42841;DHT22;28491;46.898;7.660;2023-05-08T01:49:47;12.40;99.90
42841;DHT22;28491;46.898;7.660;2023-05-08T01:52:21;12.40;99.90
42841;DHT22;28491;46.898;7.660;2023-05-08T01:55:03;12.40;99.90
42841;DHT22;28491;46.898;7.660;2023-05-08T01:57:31;12.40;99.90
42841;DHT22;28491;46.898;7.660;2023-05-08T01:59:59;12.40;99.90
42841;DHT22;28491;46.898;7.660;2023-05-08T02:02:30;12.40;99.90
42841;DHT22;28491;46.898;7.660;2023-05-08T02:04:57;12.40;99.90
42841;DHT22;28491;46.898;7.660;2023-05-08T02:07:24;12.40;99.90
42841;DHT22;28491;46.898;7.660;2023-05-08T02:09:50;12.50;99.90
42841;DHT22;28491;46.898;7.660;2023-05-08T02:12:16;12.40;99.90
42841;DHT22;28491;46.898;7.660;2023-05-08T02:14:43;12.50;99.90
42841;DHT22;28491;46.898;7.660;2023-05-08T02:17:10;12.50;99.90
42841;DHT22;28491;46.898;7.660;2023-05-08T02:19:38;12.50;99.90
42841;DHT22;28491;46.898;7.660;2023-05-08T02:22:06;12.50;99.90
42841;DHT22;28491;46.898;7.660;2023-05-08T02:24:34;12.50;99.90
42841;DHT22;28491;46.898;7.660;2023-05-08T02:26:59;12.50;99.90
42841;DHT22;28491;46.898;7.660;2023-05-08T02:29:26;12.50;99.90
42841;DHT22;28491;46.898;7.660;2023-05-08T02:31:53;12.50;99.90
42841;DHT22;28491;46.898;7.660;2023-05-08T02:34:20;12.50;99.90
42841;DHT22;28491;46.898;7.660;2023-05-08T02:36:49;12.50;99.90
42841;DHT22;28491;46.898;7.660;2023-05-08T02:39:17;12.50;99.90
42841;DHT22;28491;46.898;7.660;2023-05-08T02:41:43;12.50;99.90
42841;DHT22;28491;46.898;7.660;2023-05-08T02:44:09;12.50;99.90
42841;DHT22;28491;46.898;7.660;2023-05-08T02:46:45;12.50;99.90
42841;DHT22;28491;46.898;7.660;2023-05-08T02:49:23;12.40;99.90
42841;DHT22;28491;46.898;7.660;2023-05-08T02:52:07;12.40;99.90
42841;DHT22;28491;46.898;7.660;2023-05-08T02:54:41;12.50;99.90
42841;DHT22;28491;46.898;7.660;2023-05-08T02:57:22;12.50;99.90
42841;DHT22;28491;46.898;7.660;2023-05-08T03:00:13;12.40;99.90
42841;DHT22;28491;46.898;7.660;2023-05-08T03:02:41;12.50;99.90
42841;DHT22;28491;46.898;7.660;2023-05-08T03:05:31;12.40;99.90
42841;DHT22;28491;46.898;7.660;2023-05-08T03:08:06;12.50;99.90
42841;DHT22;28491;46.898;7.660;2023-05-08T03:10:34;12.50;99.90
42841;DHT22;28491;46.898;7.660;2023-05-08T03:13:05;12.50;99.90
42841;DHT22;28491;46.898;7.660;2023-05-08T03:15:42;12.40;99.90
42841;DHT22;28491;46.898;7.660;2023-05-08T03:18:18;12.40;99.90
42841;DHT22;28491;46.898;7.660;2023-05-08T03:20:46;12.40;99.90
42841;DHT22;28491;46.898;7.660;2023-05-08T03:23:14;12.40;99.90
42841;DHT22;28491;46.898;7.660;2023-05-08T03:25:42;12.40;99.90
42841;DHT22;28491;46.898;7.660;2023-05-08T03:28:09;12.40;99.90
42841;DHT22;28491;46.898;7.660;2023-05-08T03:30:37;12.40;99.90
42841;DHT22;28491;46.898;7.660;2023-05-08T03:33:04;12.40;99.90
42841;DHT22;28491;46.898;7.660;2023-05-08T03:35:36;12.40;99.90
42841;DHT22;28491;46.898;7.660;2023-05-08T03:38:03;12.40;99.90
42841;DHT22;28491;46.898;7.660;2023-05-08T03:40:28;12.40;99.90
42841;DHT22;28491;46.898;7.660;2023-05-08T03:42:55;12.40;99.90
42841;DHT22;28491;46.898;7.660;2023-05-08T03:45:21;12.40;99.90
42841;DHT22;28491;46.898;7.660;2023-05-08T03:47:48;12.40;99.90
42841;DHT22;28491;46.898;7.660;2023-05-08T03:50:15;12.30;99.90
42841;DHT22;28491;46.898;7.660;2023-05-08T03:52:41;12.30;99.90
42841;DHT22;28491;46.898;7.660;2023-05-08T03:55:07;12.30;99.90
42841;DHT22;28491;46.898;7.660;2023-05-08T03:57:40;12.30;99.90
42841;DHT22;28491;46.898;7.660;2023-05-08T04:00:23;12.30;99.90
42841;DHT22;28491;46.898;7.660;2023-05-08T04:03:04;12.30;99.90
42841;DHT22;28491;46.898;7.660;2023-05-08T04:06:13;12.30;99.90
42841;DHT22;28491;46.898;7.660;2023-05-08T04:08:57;12.30;99.90
42841;DHT22;28491;46.898;7.660;2023-05-08T04:11:51;12.30;99.90
42841;DHT22;28491;46.898;7.660;2023-05-08T04:14:20;12.30;99.90
42841;DHT22;28491;46.898;7.660;2023-05-08T04:16:51;12.30;99.90
42841;DHT22;28491;46.898;7.660;2023-05-08T04:19:21;12.30;99.90
42841;DHT22;28491;46.898;7.660;2023-05-08T04:21:49;12.20;99.90
42841;DHT22;28491;46.898;7.660;2023-05-08T04:24:16;12.10;99.90
42841;DHT22;28491;46.898;7.660;2023-05-08T04:26:44;12.10;99.90
42841;DHT22;28491;46.898;7.660;2023-05-08T04:29:10;12.10;99.90
42841;DHT22;28491;46.898;7.660;2023-05-08T04:31:36;12.10;99.90
42841;DHT22;28491;46.898;7.660;2023-05-08T04:34:03;12.10;99.90
42841;DHT22;28491;46.898;7.660;2023-05-08T04:36:30;12.10;99.90
42841;DHT22;28491;46.898;7.660;2023-05-08T04:38:56;12.20;99.90
42841;DHT22;28491;46.898;7.660;2023-05-08T04:41:21;12.30;99.90
42841;DHT22;28491;46.898;7.660;2023-05-08T04:43:47;12.20;99.90
42841;DHT22;28491;46.898;7.660;2023-05-08T04:46:13;12.30;99.90
42841;DHT22;28491;46.898;7.660;2023-05-08T04:48:38;12.30;99.90
42841;DHT22;28491;46.898;7.660;2023-05-08T04:51:04;12.30;99.90
42841;DHT22;28491;46.898;7.660;2023-05-08T04:53:30;12.20;99.90
42841;DHT22;28491;46.898;7.660;2023-05-08T04:55:55;12.20;99.90
42841;DHT22;28491;46.898;7.660;2023-05-08T04:58:22;12.20;99.90
42841;DHT22;28491;46.898;7.660;2023-05-08T05:00:47;12.20;99.90
42841;DHT22;28491;46.898;7.660;2023-05-08T05:03:13;12.20;99.90
42841;DHT22;28491;46.898;7.660;2023-05-08T05:05:38;12.30;99.90
42841;DHT22;28491;46.898;7.660;2023-05-08T05:08:04;12.30;99.90
42841;DHT22;28491;46.898;7.660;2023-05-08T05:10:29;12.30;99.90
42841;DHT22;28491;46.898;7.660;2023-05-08T05:12:55;12.30;99.90
42841;DHT22;28491;46.898;7.660;2023-05-08T05:15:20;12.30;99.90
42841;DHT22;28491;46.898;7.660;2023-05-08T05:17:47;12.30;99.90
42841;DHT22;28491;46.898;7.660;2023-05-08T05:20:13;12.30;99.90
42841;DHT22;28491;46.898;7.660;2023-05-08T05:22:39;12.20;99.90
42841;DHT22;28491;46.898;7.660;2023-05-08T05:25:05;12.30;99.90
42841;DHT22;28491;46.898;7.660;2023-05-08T05:27:33;12.30;99.90
42841;DHT22;28491;46.898;7.660;2023-05-08T05:29:59;12.30;99.90
42841;DHT22;28491;46.898;7.660;2023-05-08T05:32:25;12.30;99.90
42841;DHT22;28491;46.898;7.660;2023-05-08T05:34:50;12.30;99.90
42841;DHT22;28491;46.898;7.660;2023-05-08T05:37:18;12.40;99.90
42841;DHT22;28491;46.898;7.660;2023-05-08T05:39:43;12.30;99.90
42841;DHT22;28491;46.898;7.660;2023-05-08T05:42:09;12.40;99.90
42841;DHT22;28491;46.898;7.660;2023-05-08T05:44:35;12.40;99.90
42841;DHT22;28491;46.898;7.660;2023-05-08T05:47:01;12.50;99.90
42841;DHT22;28491;46.898;7.660;2023-05-08T05:49:29;12.50;99.90
42841;DHT22;28491;46.898;7.660;2023-05-08T05:51:55;12.50;99.90
42841;DHT22;28491;46.898;7.660;2023-05-08T05:54:20;12.60;99.90
42841;DHT22;28491;46.898;7.660;2023-05-08T05:56:46;12.60;99.90
42841;DHT22;28491;46.898;7.660;2023-05-08T05:59:12;12.60;99.90
42841;DHT22;28491;46.898;7.660;2023-05-08T06:01:38;12.60;99.90
42841;DHT22;28491;46.898;7.660;2023-05-08T06:04:03;12.70;99.90
42841;DHT22;28491;46.898;7.660;2023-05-08T06:06:29;12.60;99.90
42841;DHT22;28491;46.898;7.660;2023-05-08T06:08:56;12.70;99.90
42841;DHT22;28491;46.898;7.660;2023-05-08T06:11:22;12.80;99.90
42841;DHT22;28491;46.898;7.660;2023-05-08T06:13:47;12.90;99.90
42841;DHT22;28491;46.898;7.660;2023-05-08T06:16:13;12.90;99.70
42841;DHT22;28491;46.898;7.660;2023-05-08T06:18:39;12.90;99.70
42841;DHT22;28491;46.898;7.660;2023-05-08T06:21:05;13.00;98.90
42841;DHT22;28491;46.898;7.660;2023-05-08T06:23:30;13.10;99.20
42841;DHT22;28491;46.898;7.660;2023-05-08T06:25:56;13.10;98.10
42841;DHT22;28491;46.898;7.660;2023-05-08T06:28:21;13.20;97.80
42841;DHT22;28491;46.898;7.660;2023-05-08T06:30:48;13.20;97.20
42841;DHT22;28491;46.898;7.660;2023-05-08T06:33:14;13.30;97.90
42841;DHT22;28491;46.898;7.660;2023-05-08T06:35:39;13.30;97.00
42841;DHT22;28491;46.898;7.660;2023-05-08T06:38:05;13.40;98.30
42841;DHT22;28491;46.898;7.660;2023-05-08T06:40:30;13.50;97.40
42841;DHT22;28491;46.898;7.660;2023-05-08T06:42:56;13.50;97.20
42841;DHT22;28491;46.898;7.660;2023-05-08T06:45:21;13.50;94.10
42841;DHT22;28491;46.898;7.660;2023-05-08T06:47:47;13.50;94.40
42841;DHT22;28491;46.898;7.660;2023-05-08T06:50:12;13.50;93.10
42841;DHT22;28491;46.898;7.660;2023-05-08T06:52:38;13.50;93.70
42841;DHT22;28491;46.898;7.660;2023-05-08T06:55:04;13.60;97.20
42841;DHT22;28491;46.898;7.660;2023-05-08T06:57:29;13.70;94.80
42841;DHT22;28491;46.898;7.660;2023-05-08T06:59:55;13.90;96.40
42841;DHT22;28491;46.898;7.660;2023-05-08T07:02:21;13.80;92.90
42841;DHT22;28491;46.898;7.660;2023-05-08T07:04:47;13.90;93.20
42841;DHT22;28491;46.898;7.660;2023-05-08T07:07:12;14.20;97.60
42841;DHT22;28491;46.898;7.660;2023-05-08T07:09:38;14.30;96.40
42841;DHT22;28491;46.898;7.660;2023-05-08T07:12:04;14.60;96.90
42841;DHT22;28491;46.898;7.660;2023-05-08T07:14:30;14.60;94.60
42841;DHT22;28491;46.898;7.660;2023-05-08T07:16:55;14.70;92.90
42841;DHT22;28491;46.898;7.660;2023-05-08T07:19:22;14.90;92.50
42841;DHT22;28491;46.898;7.660;2023-05-08T07:21:49;15.00;78.90
42841;DHT22;28491;46.898;7.660;2023-05-08T07:24:14;15.30;76.30
42841;DHT22;28491;46.898;7.660;2023-05-08T07:26:40;15.70;73.30
42841;DHT22;28491;46.898;7.660;2023-05-08T07:29:06;15.90;69.30
42841;DHT22;28491;46.898;7.660;2023-05-08T07:31:32;16.10;70.00
42841;DHT22;28491;46.898;7.660;2023-05-08T07:33:58;16.10;69.30
42841;DHT22;28491;46.898;7.660;2023-05-08T07:36:23;16.20;67.60
42841;DHT22;28491;46.898;7.660;2023-05-08T07:38:49;16.00;68.20
42841;DHT22;28491;46.898;7.660;2023-05-08T07:41:15;15.90;69.10
42841;DHT22;28491;46.898;7.660;2023-05-08T07:43:40;15.70;69.10
42841;DHT22;28491;46.898;7.660;2023-05-08T07:46:08;15.60;68.90
42841;DHT22;28491;46.898;7.660;2023-05-08T07:48:39;15.60;68.40
42841;DHT22;28491;46.898;7.660;2023-05-08T07:51:05;15.70;67.00
42841;DHT22;28491;46.898;7.660;2023-05-08T07:53:30;15.90;71.30
42841;DHT22;28491;46.898;7.660;2023-05-08T07:55:56;16.00;67.40
42841;DHT22;28491;46.898;7.660;2023-05-08T07:58:21;16.30;69.80
42841;DHT22;28491;46.898;7.660;2023-05-08T08:00:47;16.60;66.80
42841;DHT22;28491;46.898;7.660;2023-05-08T08:03:12;16.70;61.20
42841;DHT22;28491;46.898;7.660;2023-05-08T08:05:38;16.90;42.00
42841;DHT22;28491;46.898;7.660;2023-05-08T08:08:04;17.10;41.60
42841;DHT22;28491;46.898;7.660;2023-05-08T08:10:29;17.50;34.80
42841;DHT22;28491;46.898;7.660;2023-05-08T08:12:55;18.00;45.80
42841;DHT22;28491;46.898;7.660;2023-05-08T08:15:21;18.20;43.90
42841;DHT22;28491;46.898;7.660;2023-05-08T08:17:46;18.10;51.30
42841;DHT22;28491;46.898;7.660;2023-05-08T08:20:13;17.80;41.20
42841;DHT22;28491;46.898;7.660;2023-05-08T08:22:38;17.60;32.90
42841;DHT22;28491;46.898;7.660;2023-05-08T08:25:04;17.60;56.80
42841;DHT22;28491;46.898;7.660;2023-05-08T08:27:30;17.40;48.20
42841;DHT22;28491;46.898;7.660;2023-05-08T08:29:55;17.20;52.90
42841;DHT22;28491;46.898;7.660;2023-05-08T08:32:21;16.90;61.90
42841;DHT22;28491;46.898;7.660;2023-05-08T08:34:46;16.60;61.80
42841;DHT22;28491;46.898;7.660;2023-05-08T08:37:12;16.40;62.30
42841;DHT22;28491;46.898;7.660;2023-05-08T08:39:37;16.40;65.60
42841;DHT22;28491;46.898;7.660;2023-05-08T08:42:03;16.30;66.10
42841;DHT22;28491;46.898;7.660;2023-05-08T08:44:29;16.20;62.60
42841;DHT22;28491;46.898;7.660;2023-05-08T08:46:57;16.10;64.70
42841;DHT22;28491;46.898;7.660;2023-05-08T08:49:34;16.00;66.50
42841;DHT22;28491;46.898;7.660;2023-05-08T08:52:15;16.00;65.40
42841;DHT22;28491;46.898;7.660;2023-05-08T08:54:43;16.10;64.20
42841;DHT22;28491;46.898;7.660;2023-05-08T08:57:10;16.20;61.90
42841;DHT22;28491;46.898;7.660;2023-05-08T08:59:37;16.20;62.40
42841;DHT22;28491;46.898;7.660;2023-05-08T09:02:10;16.20;59.90
42841;DHT22;28491;46.898;7.660;2023-05-08T09:04:37;16.20;62.40
42841;DHT22;28491;46.898;7.660;2023-05-08T09:07:03;16.30;63.70
42841;DHT22;28491;46.898;7.660;2023-05-08T09:09:31;16.30;52.60
42841;DHT22;28491;46.898;7.660;2023-05-08T09:11:58;16.40;60.30
42841;DHT22;28491;46.898;7.660;2023-05-08T09:14:24;16.40;61.00
42841;DHT22;28491;46.898;7.660;2023-05-08T09:16:52;16.40;53.20
42841;DHT22;28491;46.898;7.660;2023-05-08T09:19:18;16.40;55.20
42841;DHT22;28491;46.898;7.660;2023-05-08T09:21:44;16.50;52.90
42841;DHT22;28491;46.898;7.660;2023-05-08T09:24:09;16.50;60.80
42841;DHT22;28491;46.898;7.660;2023-05-08T09:26:38;16.60;60.00
42841;DHT22;28491;46.898;7.660;2023-05-08T09:29:14;16.60;55.10
42841;DHT22;28491;46.898;7.660;2023-05-08T09:31:45;16.60;43.20
42841;DHT22;28491;46.898;7.660;2023-05-08T09:34:25;16.60;33.40
42841;DHT22;28491;46.898;7.660;2023-05-08T09:36:52;16.50;33.20
42841;DHT22;28491;46.898;7.660;2023-05-08T09:39:23;16.50;40.30
42841;DHT22;28491;46.898;7.660;2023-05-08T09:42:02;16.70;51.30
42841;DHT22;28491;46.898;7.660;2023-05-08T09:44:49;16.80;29.00
42841;DHT22;28491;46.898;7.660;2023-05-08T09:47:16;17.10;23.10
42841;DHT22;28491;46.898;7.660;2023-05-08T09:49:56;17.20;15.80
42841;DHT22;28491;46.898;7.660;2023-05-08T09:52:22;17.20;36.60
42841;DHT22;28491;46.898;7.660;2023-05-08T09:54:56;17.20;25.70
42841;DHT22;28491;46.898;7.660;2023-05-08T09:57:23;17.40;11.40
42841;DHT22;28491;46.898;7.660;2023-05-08T09:59:48;17.50;1.00
42841;DHT22;28491;46.898;7.660;2023-05-08T10:02:14;17.40;1.90
42841;DHT22;28491;46.898;7.660;2023-05-08T10:04:40;17.40;1.00
42841;DHT22;28491;46.898;7.660;2023-05-08T10:07:06;17.50;1.00
42841;DHT22;28491;46.898;7.660;2023-05-08T10:09:31;17.80;1.00
42841;DHT22;28491;46.898;7.660;2023-05-08T10:11:57;17.80;5.20
42841;DHT22;28491;46.898;7.660;2023-05-08T10:14:23;18.20;1.00
42841;DHT22;28491;46.898;7.660;2023-05-08T10:16:51;18.40;1.00
42841;DHT22;28491;46.898;7.660;2023-05-08T10:19:27;18.20;12.80
42841;DHT22;28491;46.898;7.660;2023-05-08T10:21:54;18.10;1.00
42841;DHT22;28491;46.898;7.660;2023-05-08T10:24:31;17.80;1.00
42841;DHT22;28491;46.898;7.660;2023-05-08T10:27:10;17.60;1.00
42841;DHT22;28491;46.898;7.660;2023-05-08T10:32:18;17.20;1.00
42841;DHT22;28491;46.898;7.660;2023-05-08T10:34:48;16.90;5.80
42841;DHT22;28491;46.898;7.660;2023-05-08T10:37:15;16.90;2.80
42841;DHT22;28491;46.898;7.660;2023-05-08T10:39:42;16.90;16.40
42841;DHT22;28491;46.898;7.660;2023-05-08T10:42:08;16.90;16.80
42841;DHT22;28491;46.898;7.660;2023-05-08T10:44:34;16.80;8.50
42841;DHT22;28491;46.898;7.660;2023-05-08T10:47:16;16.90;10.30
42841;DHT22;28491;46.898;7.660;2023-05-08T10:49:50;17.30;23.20
42841;DHT22;28491;46.898;7.660;2023-05-08T10:52:33;17.50;18.80
42841;DHT22;28491;46.898;7.660;2023-05-08T10:55:24;17.60;25.50
42841;DHT22;28491;46.898;7.660;2023-05-08T11:00:31;18.20;5.50
42841;DHT22;28491;46.898;7.660;2023-05-08T11:03:05;18.10;3.70
42841;DHT22;28491;46.898;7.660;2023-05-08T11:05:44;17.70;1.00
42841;DHT22;28491;46.898;7.660;2023-05-08T11:08:14;17.70;10.50
42841;DHT22;28491;46.898;7.660;2023-05-08T11:10:58;17.60;4.10
42841;DHT22;28491;46.898;7.660;2023-05-08T11:13:31;17.60;7.60
42841;DHT22;28491;46.898;7.660;2023-05-08T11:15:57;17.60;7.40
42841;DHT22;28491;46.898;7.660;2023-05-08T11:18:23;17.40;1.00
42841;DHT22;28491;46.898;7.660;2023-05-08T11:21:01;17.60;4.30
42841;DHT22;28491;46.898;7.660;2023-05-08T11:23:36;17.80;14.70
42841;DHT22;28491;46.898;7.660;2023-05-08T11:26:14;18.10;7.10
42841;DHT22;28491;46.898;7.660;2023-05-08T11:31:18;18.30;1.00
42841;DHT22;28491;46.898;7.660;2023-05-08T11:33:44;18.40;2.90
42841;DHT22;28491;46.898;7.660;2023-05-08T11:36:19;18.50;7.90
42841;DHT22;28491;46.898;7.660;2023-05-08T11:39:06;18.50;7.40
42841;DHT22;28491;46.898;7.660;2023-05-08T11:41:40;18.50;10.40
42841;DHT22;28491;46.898;7.660;2023-05-08T11:44:16;18.40;13.30
42841;DHT22;28491;46.898;7.660;2023-05-08T11:46:54;18.30;12.90
42841;DHT22;28491;46.898;7.660;2023-05-08T11:49:22;18.20;22.80
42841;DHT22;28491;46.898;7.660;2023-05-08T11:51:49;17.80;6.90
42841;DHT22;28491;46.898;7.660;2023-05-08T11:54:19;17.70;13.20
42841;DHT22;28491;46.898;7.660;2023-05-08T11:56:49;17.50;21.00
42841;DHT22;28491;46.898;7.660;2023-05-08T11:59:15;17.20;34.60
42841;DHT22;28491;46.898;7.660;2023-05-08T12:01:41;16.90;47.60
42841;DHT22;28491;46.898;7.660;2023-05-08T12:04:11;16.90;59.10
42841;DHT22;28491;46.898;7.660;2023-05-08T12:06:39;16.70;55.40
42841;DHT22;28491;46.898;7.660;2023-05-08T12:09:15;16.50;55.20
42841;DHT22;28491;46.898;7.660;2023-05-08T12:11:42;16.40;38.70
42841;DHT22;28491;46.898;7.660;2023-05-08T12:14:11;16.60;60.00
42841;DHT22;28491;46.898;7.660;2023-05-08T12:16:38;16.70;46.00
42841;DHT22;28491;46.898;7.660;2023-05-08T12:19:11;16.80;51.40
42841;DHT22;28491;46.898;7.660;2023-05-08T12:21:37;17.10;60.10
42841;DHT22;28491;46.898;7.660;2023-05-08T12:24:07;17.30;42.80
42841;DHT22;28491;46.898;7.660;2023-05-08T12:26:36;17.30;41.40
42841;DHT22;28491;46.898;7.660;2023-05-08T12:29:04;17.40;36.00
42841;DHT22;28491;46.898;7.660;2023-05-08T12:31:31;17.40;34.70
42841;DHT22;28491;46.898;7.660;2023-05-08T12:33:57;17.60;24.50
42841;DHT22;28491;46.898;7.660;2023-05-08T12:36:22;18.00;18.80
42841;DHT22;28491;46.898;7.660;2023-05-08T12:38:49;18.30;25.50
42841;DHT22;28491;46.898;7.660;2023-05-08T12:41:22;18.50;14.00
42841;DHT22;28491;46.898;7.660;2023-05-08T12:43:48;18.20;1.00
42841;DHT22;28491;46.898;7.660;2023-05-08T12:46:13;18.60;12.90
42841;DHT22;28491;46.898;7.660;2023-05-08T12:48:42;18.60;11.20
42841;DHT22;28491;46.898;7.660;2023-05-08T12:51:09;18.90;12.80
42841;DHT22;28491;46.898;7.660;2023-05-08T12:53:36;19.10;16.20
42841;DHT22;28491;46.898;7.660;2023-05-08T12:56:03;19.00;21.20
42841;DHT22;28491;46.898;7.660;2023-05-08T12:58:33;19.10;20.80
42841;DHT22;28491;46.898;7.660;2023-05-08T13:01:11;19.00;9.50
42841;DHT22;28491;46.898;7.660;2023-05-08T13:03:38;18.90;13.80
42841;DHT22;28491;46.898;7.660;2023-05-08T13:06:04;18.80;1.40
42841;DHT22;28491;46.898;7.660;2023-05-08T13:08:40;18.80;8.10
42841;DHT22;28491;46.898;7.660;2023-05-08T13:11:06;18.90;22.40
42841;DHT22;28491;46.898;7.660;2023-05-08T13:13:33;19.10;13.30
42841;DHT22;28491;46.898;7.660;2023-05-08T13:16:05;19.20;5.40
42841;DHT22;28491;46.898;7.660;2023-05-08T13:18:32;19.20;13.60
42841;DHT22;28491;46.898;7.660;2023-05-08T13:20:58;19.10;1.70
42841;DHT22;28491;46.898;7.660;2023-05-08T13:23:24;19.00;8.30
42841;DHT22;28491;46.898;7.660;2023-05-08T13:25:50;18.90;11.00
42841;DHT22;28491;46.898;7.660;2023-05-08T13:28:15;18.80;17.30
42841;DHT22;28491;46.898;7.660;2023-05-08T13:30:42;18.80;14.40
42841;DHT22;28491;46.898;7.660;2023-05-08T13:33:08;18.50;13.10
42841;DHT22;28491;46.898;7.660;2023-05-08T13:35:34;17.90;23.00
42841;DHT22;28491;46.898;7.660;2023-05-08T13:38:00;17.70;39.50
42841;DHT22;28491;46.898;7.660;2023-05-08T13:40:26;17.40;38.00
42841;DHT22;28491;46.898;7.660;2023-05-08T13:42:52;17.10;43.60
42841;DHT22;28491;46.898;7.660;2023-05-08T13:45:18;17.00;60.00
42841;DHT22;28491;46.898;7.660;2023-05-08T13:47:44;16.90;57.40
42841;DHT22;28491;46.898;7.660;2023-05-08T13:50:11;17.00;61.90
42841;DHT22;28491;46.898;7.660;2023-05-08T13:52:37;16.90;60.60
42841;DHT22;28491;46.898;7.660;2023-05-08T13:55:05;16.70;53.40
42841;DHT22;28491;46.898;7.660;2023-05-08T13:57:30;16.70;53.20
42841;DHT22;28491;46.898;7.660;2023-05-08T13:59:56;16.70;53.00
42841;DHT22;28491;46.898;7.660;2023-05-08T14:02:21;16.60;57.10
42841;DHT22;28491;46.898;7.660;2023-05-08T14:04:47;16.60;60.60
42841;DHT22;28491;46.898;7.660;2023-05-08T14:07:12;16.50;53.70
42841;DHT22;28491;46.898;7.660;2023-05-08T14:09:38;16.40;49.30
42841;DHT22;28491;46.898;7.660;2023-05-08T14:12:04;16.50;62.30
42841;DHT22;28491;46.898;7.660;2023-05-08T14:14:29;16.30;48.00
42841;DHT22;28491;46.898;7.660;2023-05-08T14:16:55;16.50;62.20
42841;DHT22;28491;46.898;7.660;2023-05-08T14:19:20;16.60;50.80
42841;DHT22;28491;46.898;7.660;2023-05-08T14:21:46;16.70;50.10
42841;DHT22;28491;46.898;7.660;2023-05-08T14:24:11;16.90;63.70
42841;DHT22;28491;46.898;7.660;2023-05-08T14:26:37;17.10;57.00
42841;DHT22;28491;46.898;7.660;2023-05-08T14:29:03;17.00;43.30
42841;DHT22;28491;46.898;7.660;2023-05-08T14:31:28;17.10;38.00
42841;DHT22;28491;46.898;7.660;2023-05-08T14:33:54;17.10;60.00
42841;DHT22;28491;46.898;7.660;2023-05-08T14:36:20;17.10;60.40
42841;DHT22;28491;46.898;7.660;2023-05-08T14:38:45;17.10;54.80
42841;DHT22;28491;46.898;7.660;2023-05-08T14:41:11;17.00;46.50
42841;DHT22;28491;46.898;7.660;2023-05-08T14:43:36;17.00;61.80
42841;DHT22;28491;46.898;7.660;2023-05-08T14:46:02;16.90;38.10
42841;DHT22;28491;46.898;7.660;2023-05-08T14:48:27;16.90;52.40
42841;DHT22;28491;46.898;7.660;2023-05-08T14:50:53;17.00;60.20
42841;DHT22;28491;46.898;7.660;2023-05-08T14:53:18;17.10;45.10
42841;DHT22;28491;46.898;7.660;2023-05-08T14:55:44;17.20;35.60
42841;DHT22;28491;46.898;7.660;2023-05-08T14:58:10;17.20;22.40
42841;DHT22;28491;46.898;7.660;2023-05-08T15:00:35;17.10;38.40
42841;DHT22;28491;46.898;7.660;2023-05-08T15:03:01;17.20;35.60
42841;DHT22;28491;46.898;7.660;2023-05-08T15:05:27;17.20;30.60
42841;DHT22;28491;46.898;7.660;2023-05-08T15:07:52;17.20;24.30
42841;DHT22;28491;46.898;7.660;2023-05-08T15:10:18;17.30;17.60
42841;DHT22;28491;46.898;7.660;2023-05-08T15:12:43;17.20;20.80
42841;DHT22;28491;46.898;7.660;2023-05-08T15:15:09;17.30;18.90
42841;DHT22;28491;46.898;7.660;2023-05-08T15:17:36;17.20;15.70
42841;DHT22;28491;46.898;7.660;2023-05-08T15:20:02;17.10;24.20
42841;DHT22;28491;46.898;7.660;2023-05-08T15:22:28;17.10;13.50
42841;DHT22;28491;46.898;7.660;2023-05-08T15:24:53;17.00;21.00
42841;DHT22;28491;46.898;7.660;2023-05-08T15:27:19;16.90;17.50
42841;DHT22;28491;46.898;7.660;2023-05-08T15:29:45;17.00;19.50
42841;DHT22;28491;46.898;7.660;2023-05-08T15:32:12;16.90;18.40
42841;DHT22;28491;46.898;7.660;2023-05-08T15:34:37;16.90;25.20
42841;DHT22;28491;46.898;7.660;2023-05-08T15:37:03;16.90;29.50
42841;DHT22;28491;46.898;7.660;2023-05-08T15:39:28;16.80;29.60
42841;DHT22;28491;46.898;7.660;2023-05-08T15:41:54;16.80;22.80
42841;DHT22;28491;46.898;7.660;2023-05-08T15:44:19;16.90;19.00
42841;DHT22;28491;46.898;7.660;2023-05-08T15:46:45;16.80;28.30
42841;DHT22;28491;46.898;7.660;2023-05-08T15:49:10;16.80;23.10
42841;DHT22;28491;46.898;7.660;2023-05-08T15:51:36;16.80;24.40
42841;DHT22;28491;46.898;7.660;2023-05-08T15:54:01;16.70;24.20
42841;DHT22;28491;46.898;7.660;2023-05-08T15:56:27;16.80;14.20
42841;DHT22;28491;46.898;7.660;2023-05-08T15:58:52;16.80;14.60
42841;DHT22;28491;46.898;7.660;2023-05-08T16:01:21;16.80;26.30
42841;DHT22;28491;46.898;7.660;2023-05-08T16:03:46;16.80;18.70